sensor_id;sensor_type;location;lat;lon;timestamp;temperature;humidity
17740;DHT22;8990;33.226;-97.150;2022-09-29T00:01:54;30.30;76.00
17740;DHT22;8990;33.226;-97.150;2022-09-29T00:04:23;30.20;76.00
17740;DHT22;8990;33.226;-97.150;2022-09-29T00:06:52;30.20;76.20
17740;DHT22;8990;33.226;-97.150;2022-09-29T00:09:21;30.10;76.20
17740;DHT22;8990;33.226;-97.150;2022-09-29T00:11:55;30.00;76.40
17740;DHT22;8990;33.226;-97.150;2022-09-29T00:14:24;29.90;76.40
17740;DHT22;8990;33.226;-97.150;2022-09-29T00:16:53;29.80;76.70
17740;DHT22;8990;33.226;-97.150;2022-09-29T00:19:23;29.70;76.90
17740;DHT22;8990;33.226;-97.150;2022-09-29T00:21:54;29.70;77.00
17740;DHT22;8990;33.226;-97.150;2022-09-29T00:24:23;29.60;77.20
17740;DHT22;8990;33.226;-97.150;2022-09-29T00:26:54;29.60;77.60
17740;DHT22;8990;33.226;-97.150;2022-09-29T00:29:24;29.50;77.80
17740;DHT22;8990;33.226;-97.150;2022-09-29T00:31:54;29.50;77.80
17740;DHT22;8990;33.226;-97.150;2022-09-29T00:34:23;29.40;78.00
17740;DHT22;8990;33.226;-97.150;2022-09-29T00:36:52;29.40;78.20
17740;DHT22;8990;33.226;-97.150;2022-09-29T00:39:22;29.30;78.20
17740;DHT22;8990;33.226;-97.150;2022-09-29T00:41:52;29.30;78.30
17740;DHT22;8990;33.226;-97.150;2022-09-29T00:44:58;29.20;78.40
17740;DHT22;8990;33.226;-97.150;2022-09-29T00:47:30;29.10;78.70
17740;DHT22;8990;33.226;-97.150;2022-09-29T00:50:04;29.00;78.90
17740;DHT22;8990;33.226;-97.150;2022-09-29T00:52:37;28.90;79.10
17740;DHT22;8990;33.226;-97.150;2022-09-29T00:55:12;28.80;79.30
17740;DHT22;8990;33.226;-97.150;2022-09-29T00:57:50;28.80;79.50
17740;DHT22;8990;33.226;-97.150;2022-09-29T01:00:23;28.70;79.80
17740;DHT22;8990;33.226;-97.150;2022-09-29T01:02:56;28.60;79.90
17740;DHT22;8990;33.226;-97.150;2022-09-29T01:05:30;28.70;79.90
17740;DHT22;8990;33.226;-97.150;2022-09-29T01:08:07;28.60;79.60
17740;DHT22;8990;33.226;-97.150;2022-09-29T01:10:39;28.60;79.50
17740;DHT22;8990;33.226;-97.150;2022-09-29T01:13:09;28.60;79.80
17740;DHT22;8990;33.226;-97.150;2022-09-29T01:15:41;28.60;79.70
17740;DHT22;8990;33.226;-97.150;2022-09-29T01:18:11;28.60;79.40
17740;DHT22;8990;33.226;-97.150;2022-09-29T01:20:44;28.50;79.50
17740;DHT22;8990;33.226;-97.150;2022-09-29T01:23:50;28.50;79.60
17740;DHT22;8990;33.226;-97.150;2022-09-29T01:27:04;28.40;79.70
17740;DHT22;8990;33.226;-97.150;2022-09-29T01:30:07;28.30;79.90
17740;DHT22;8990;33.226;-97.150;2022-09-29T01:33:17;28.20;80.10
17740;DHT22;8990;33.226;-97.150;2022-09-29T01:35:58;28.10;80.50
17740;DHT22;8990;33.226;-97.150;2022-09-29T01:38:47;28.00;80.80
17740;DHT22;8990;33.226;-97.150;2022-09-29T01:41:26;28.00;81.00
17740;DHT22;8990;33.226;-97.150;2022-09-29T01:44:04;28.00;81.20
17740;DHT22;8990;33.226;-97.150;2022-09-29T01:46:37;27.90;81.10
17740;DHT22;8990;33.226;-97.150;2022-09-29T01:49:11;27.90;81.50
17740;DHT22;8990;33.226;-97.150;2022-09-29T01:51:47;27.80;81.50
17740;DHT22;8990;33.226;-97.150;2022-09-29T01:54:20;27.80;81.60
17740;DHT22;8990;33.226;-97.150;2022-09-29T01:56:52;27.80;81.90
17740;DHT22;8990;33.226;-97.150;2022-09-29T01:59:25;27.90;81.60
17740;DHT22;8990;33.226;-97.150;2022-09-29T02:01:59;27.90;81.70
17740;DHT22;8990;33.226;-97.150;2022-09-29T02:04:37;27.90;81.80
17740;DHT22;8990;33.226;-97.150;2022-09-29T02:07:12;27.90;81.70
17740;DHT22;8990;33.226;-97.150;2022-09-29T02:09:48;27.80;81.70
17740;DHT22;8990;33.226;-97.150;2022-09-29T02:12:21;27.80;82.30
17740;DHT22;8990;33.226;-97.150;2022-09-29T02:14:53;27.80;82.20
17740;DHT22;8990;33.226;-97.150;2022-09-29T02:17:28;27.80;82.20
17740;DHT22;8990;33.226;-97.150;2022-09-29T02:19:59;27.80;82.20
17740;DHT22;8990;33.226;-97.150;2022-09-29T02:22:29;27.80;82.10
17740;DHT22;8990;33.226;-97.150;2022-09-29T02:25:01;27.80;82.10
17740;DHT22;8990;33.226;-97.150;2022-09-29T02:27:31;27.80;82.20
17740;DHT22;8990;33.226;-97.150;2022-09-29T02:30:01;27.80;82.30
17740;DHT22;8990;33.226;-97.150;2022-09-29T02:32:34;27.70;82.00
17740;DHT22;8990;33.226;-97.150;2022-09-29T02:35:07;27.70;82.30
17740;DHT22;8990;33.226;-97.150;2022-09-29T02:37:51;27.60;82.50
17740;DHT22;8990;33.226;-97.150;2022-09-29T02:40:30;27.50;82.60
17740;DHT22;8990;33.226;-97.150;2022-09-29T02:43:19;27.50;83.00
17740;DHT22;8990;33.226;-97.150;2022-09-29T02:46:01;27.40;83.30
17740;DHT22;8990;33.226;-97.150;2022-09-29T02:48:55;27.30;83.70
17740;DHT22;8990;33.226;-97.150;2022-09-29T02:51:32;27.30;84.00
17740;DHT22;8990;33.226;-97.150;2022-09-29T02:54:14;27.30;84.10
17740;DHT22;8990;33.226;-97.150;2022-09-29T02:56:55;27.30;84.10
17740;DHT22;8990;33.226;-97.150;2022-09-29T02:59:34;27.30;84.40
17740;DHT22;8990;33.226;-97.150;2022-09-29T03:02:05;27.20;84.60
17740;DHT22;8990;33.226;-97.150;2022-09-29T03:04:35;27.20;84.90
17740;DHT22;8990;33.226;-97.150;2022-09-29T03:07:05;27.20;84.90
17740;DHT22;8990;33.226;-97.150;2022-09-29T03:09:35;27.20;85.10
17740;DHT22;8990;33.226;-97.150;2022-09-29T03:12:04;27.20;85.20
17740;DHT22;8990;33.226;-97.150;2022-09-29T03:14:34;27.20;85.40
17740;DHT22;8990;33.226;-97.150;2022-09-29T03:17:03;27.20;86.00
17740;DHT22;8990;33.226;-97.150;2022-09-29T03:19:33;27.10;85.50
17740;DHT22;8990;33.226;-97.150;2022-09-29T03:22:04;27.10;85.60
17740;DHT22;8990;33.226;-97.150;2022-09-29T03:24:35;27.10;85.40
17740;DHT22;8990;33.226;-97.150;2022-09-29T03:27:04;27.00;85.60
17740;DHT22;8990;33.226;-97.150;2022-09-29T03:29:33;26.90;85.60
17740;DHT22;8990;33.226;-97.150;2022-09-29T03:32:04;26.80;86.00
17740;DHT22;8990;33.226;-97.150;2022-09-29T03:34:34;26.80;86.10
17740;DHT22;8990;33.226;-97.150;2022-09-29T03:37:05;26.80;86.30
17740;DHT22;8990;33.226;-97.150;2022-09-29T03:39:36;26.70;86.50
17740;DHT22;8990;33.226;-97.150;2022-09-29T03:42:06;26.60;86.80
17740;DHT22;8990;33.226;-97.150;2022-09-29T03:44:35;26.60;87.10
17740;DHT22;8990;33.226;-97.150;2022-09-29T03:47:05;26.50;87.10
17740;DHT22;8990;33.226;-97.150;2022-09-29T03:49:34;26.50;87.30
17740;DHT22;8990;33.226;-97.150;2022-09-29T03:52:05;26.40;87.70
17740;DHT22;8990;33.226;-97.150;2022-09-29T03:54:34;26.40;87.80
17740;DHT22;8990;33.226;-97.150;2022-09-29T03:57:04;26.40;87.90
17740;DHT22;8990;33.226;-97.150;2022-09-29T03:59:33;26.40;87.90
17740;DHT22;8990;33.226;-97.150;2022-09-29T04:02:03;26.40;88.10
17740;DHT22;8990;33.226;-97.150;2022-09-29T04:04:33;26.40;88.20
17740;DHT22;8990;33.226;-97.150;2022-09-29T04:07:03;26.30;88.80
17740;DHT22;8990;33.226;-97.150;2022-09-29T04:09:35;26.30;88.00
17740;DHT22;8990;33.226;-97.150;2022-09-29T04:12:05;26.20;88.50
17740;DHT22;8990;33.226;-97.150;2022-09-29T04:14:35;26.20;88.50
17740;DHT22;8990;33.226;-97.150;2022-09-29T04:17:04;26.10;88.70
17740;DHT22;8990;33.226;-97.150;2022-09-29T04:19:33;26.10;88.70
17740;DHT22;8990;33.226;-97.150;2022-09-29T04:22:02;26.10;89.10
17740;DHT22;8990;33.226;-97.150;2022-09-29T04:24:34;25.90;89.20
17740;DHT22;8990;33.226;-97.150;2022-09-29T04:27:03;25.90;89.20
17740;DHT22;8990;33.226;-97.150;2022-09-29T04:29:32;25.90;89.50
17740;DHT22;8990;33.226;-97.150;2022-09-29T04:32:01;25.90;89.50
17740;DHT22;8990;33.226;-97.150;2022-09-29T04:34:32;25.80;89.40
17740;DHT22;8990;33.226;-97.150;2022-09-29T04:37:01;25.90;89.60
17740;DHT22;8990;33.226;-97.150;2022-09-29T04:39:30;25.80;89.40
17740;DHT22;8990;33.226;-97.150;2022-09-29T04:42:01;25.70;90.00
17740;DHT22;8990;33.226;-97.150;2022-09-29T04:44:30;25.70;89.50
17740;DHT22;8990;33.226;-97.150;2022-09-29T04:46:59;25.70;89.50
17740;DHT22;8990;33.226;-97.150;2022-09-29T04:49:28;25.70;89.60
17740;DHT22;8990;33.226;-97.150;2022-09-29T04:51:58;25.70;89.40
17740;DHT22;8990;33.226;-97.150;2022-09-29T04:54:30;25.60;89.50
17740;DHT22;8990;33.226;-97.150;2022-09-29T04:57:01;25.50;89.30
17740;DHT22;8990;33.226;-97.150;2022-09-29T04:59:30;25.50;89.10
17740;DHT22;8990;33.226;-97.150;2022-09-29T05:01:59;25.50;89.20
17740;DHT22;8990;33.226;-97.150;2022-09-29T05:04:29;25.50;89.10
17740;DHT22;8990;33.226;-97.150;2022-09-29T05:06:58;25.40;89.40
17740;DHT22;8990;33.226;-97.150;2022-09-29T05:09:27;25.40;89.30
17740;DHT22;8990;33.226;-97.150;2022-09-29T05:11:56;25.40;89.40
17740;DHT22;8990;33.226;-97.150;2022-09-29T05:14:27;25.40;89.40
17740;DHT22;8990;33.226;-97.150;2022-09-29T05:16:56;25.40;89.40
17740;DHT22;8990;33.226;-97.150;2022-09-29T05:19:27;25.40;89.50
17740;DHT22;8990;33.226;-97.150;2022-09-29T05:21:55;25.40;89.80
17740;DHT22;8990;33.226;-97.150;2022-09-29T05:24:25;25.40;89.50
17740;DHT22;8990;33.226;-97.150;2022-09-29T05:26:54;25.40;89.80
17740;DHT22;8990;33.226;-97.150;2022-09-29T05:29:23;25.40;89.70
17740;DHT22;8990;33.226;-97.150;2022-09-29T05:31:53;25.40;89.70
17740;DHT22;8990;33.226;-97.150;2022-09-29T05:34:24;25.40;89.80
17740;DHT22;8990;33.226;-97.150;2022-09-29T05:36:53;25.30;90.00
17740;DHT22;8990;33.226;-97.150;2022-09-29T05:39:22;25.30;90.00
17740;DHT22;8990;33.226;-97.150;2022-09-29T05:41:51;25.20;90.10
17740;DHT22;8990;33.226;-97.150;2022-09-29T05:44:21;25.20;90.20
17740;DHT22;8990;33.226;-97.150;2022-09-29T05:46:50;25.10;90.40
17740;DHT22;8990;33.226;-97.150;2022-09-29T05:49:21;25.10;90.70
17740;DHT22;8990;33.226;-97.150;2022-09-29T05:51:50;25.00;90.80
17740;DHT22;8990;33.226;-97.150;2022-09-29T05:54:20;25.00;90.90
17740;DHT22;8990;33.226;-97.150;2022-09-29T05:56:50;25.00;90.80
17740;DHT22;8990;33.226;-97.150;2022-09-29T05:59:19;24.90;90.80
17740;DHT22;8990;33.226;-97.150;2022-09-29T06:01:48;24.80;90.90
17740;DHT22;8990;33.226;-97.150;2022-09-29T06:04:17;24.80;91.30
17740;DHT22;8990;33.226;-97.150;2022-09-29T06:06:48;24.70;91.50
17740;DHT22;8990;33.226;-97.150;2022-09-29T06:09:17;24.70;91.70
17740;DHT22;8990;33.226;-97.150;2022-09-29T06:11:46;24.70;91.70
17740;DHT22;8990;33.226;-97.150;2022-09-29T06:14:15;24.60;91.60
17740;DHT22;8990;33.226;-97.150;2022-09-29T06:16:45;24.50;91.80
17740;DHT22;8990;33.226;-97.150;2022-09-29T06:19:16;24.50;91.90
17740;DHT22;8990;33.226;-97.150;2022-09-29T06:21:47;24.50;91.90
17740;DHT22;8990;33.226;-97.150;2022-09-29T06:24:16;24.40;92.10
17740;DHT22;8990;33.226;-97.150;2022-09-29T06:26:45;24.40;92.00
17740;DHT22;8990;33.226;-97.150;2022-09-29T06:29:15;24.40;92.00
17740;DHT22;8990;33.226;-97.150;2022-09-29T06:31:44;24.40;92.10
17740;DHT22;8990;33.226;-97.150;2022-09-29T06:34:14;24.30;92.10
17740;DHT22;8990;33.226;-97.150;2022-09-29T06:36:44;24.30;92.20
17740;DHT22;8990;33.226;-97.150;2022-09-29T06:39:31;24.30;92.40
17740;DHT22;8990;33.226;-97.150;2022-09-29T06:42:01;24.30;92.50
17740;DHT22;8990;33.226;-97.150;2022-09-29T06:44:30;24.30;92.60
17740;DHT22;8990;33.226;-97.150;2022-09-29T06:46:59;24.20;92.60
17740;DHT22;8990;33.226;-97.150;2022-09-29T06:49:29;24.20;92.70
17740;DHT22;8990;33.226;-97.150;2022-09-29T06:51:58;24.30;92.80
17740;DHT22;8990;33.226;-97.150;2022-09-29T06:54:28;24.30;93.00
17740;DHT22;8990;33.226;-97.150;2022-09-29T06:56:59;24.20;92.90
17740;DHT22;8990;33.226;-97.150;2022-09-29T06:59:29;24.20;92.90
17740;DHT22;8990;33.226;-97.150;2022-09-29T07:01:58;24.20;93.00
17740;DHT22;8990;33.226;-97.150;2022-09-29T07:04:27;24.10;93.10
17740;DHT22;8990;33.226;-97.150;2022-09-29T07:06:57;24.00;93.20
17740;DHT22;8990;33.226;-97.150;2022-09-29T07:09:26;23.90;93.30
17740;DHT22;8990;33.226;-97.150;2022-09-29T07:11:55;23.90;93.40
17740;DHT22;8990;33.226;-97.150;2022-09-29T07:14:26;23.90;93.50
17740;DHT22;8990;33.226;-97.150;2022-09-29T07:16:55;23.80;93.60
17740;DHT22;8990;33.226;-97.150;2022-09-29T07:19:25;23.80;94.00
17740;DHT22;8990;33.226;-97.150;2022-09-29T07:21:55;23.80;93.70
17740;DHT22;8990;33.226;-97.150;2022-09-29T07:24:24;23.70;93.60
17740;DHT22;8990;33.226;-97.150;2022-09-29T07:26:53;23.70;93.70
17740;DHT22;8990;33.226;-97.150;2022-09-29T07:29:25;23.60;93.60
17740;DHT22;8990;33.226;-97.150;2022-09-29T07:31:58;23.60;93.80
17740;DHT22;8990;33.226;-97.150;2022-09-29T07:34:28;23.60;93.90
17740;DHT22;8990;33.226;-97.150;2022-09-29T07:36:57;23.50;94.00
17740;DHT22;8990;33.226;-97.150;2022-09-29T07:39:27;23.50;94.00
17740;DHT22;8990;33.226;-97.150;2022-09-29T07:41:56;23.50;94.50
17740;DHT22;8990;33.226;-97.150;2022-09-29T07:44:26;23.40;94.20
17740;DHT22;8990;33.226;-97.150;2022-09-29T07:46:58;23.40;94.20
17740;DHT22;8990;33.226;-97.150;2022-09-29T07:49:27;23.40;94.40
17740;DHT22;8990;33.226;-97.150;2022-09-29T07:51:57;23.30;94.40
17740;DHT22;8990;33.226;-97.150;2022-09-29T07:54:27;23.30;94.50
17740;DHT22;8990;33.226;-97.150;2022-09-29T07:56:57;23.30;94.50
17740;DHT22;8990;33.226;-97.150;2022-09-29T07:59:30;23.20;94.70
17740;DHT22;8990;33.226;-97.150;2022-09-29T08:01:59;23.30;94.80
17740;DHT22;8990;33.226;-97.150;2022-09-29T08:04:30;23.20;94.80
17740;DHT22;8990;33.226;-97.150;2022-09-29T08:07:00;23.20;94.90
17740;DHT22;8990;33.226;-97.150;2022-09-29T08:09:29;23.20;94.90
17740;DHT22;8990;33.226;-97.150;2022-09-29T08:11:59;23.10;95.00
17740;DHT22;8990;33.226;-97.150;2022-09-29T08:14:30;23.10;95.20
17740;DHT22;8990;33.226;-97.150;2022-09-29T08:17:00;23.10;95.30
17740;DHT22;8990;33.226;-97.150;2022-09-29T08:19:29;23.10;95.30
17740;DHT22;8990;33.226;-97.150;2022-09-29T08:21:58;23.00;95.40
17740;DHT22;8990;33.226;-97.150;2022-09-29T08:24:27;23.10;95.50
17740;DHT22;8990;33.226;-97.150;2022-09-29T08:26:57;23.10;95.60
17740;DHT22;8990;33.226;-97.150;2022-09-29T08:29:29;23.10;95.50
17740;DHT22;8990;33.226;-97.150;2022-09-29T08:31:59;23.20;95.70
17740;DHT22;8990;33.226;-97.150;2022-09-29T08:34:29;23.20;95.60
17740;DHT22;8990;33.226;-97.150;2022-09-29T08:36:57;23.20;95.70
17740;DHT22;8990;33.226;-97.150;2022-09-29T08:39:27;23.20;95.80
17740;DHT22;8990;33.226;-97.150;2022-09-29T08:42:01;23.10;95.80
17740;DHT22;8990;33.226;-97.150;2022-09-29T08:44:38;23.10;96.00
17740;DHT22;8990;33.226;-97.150;2022-09-29T08:47:20;23.10;96.30
17740;DHT22;8990;33.226;-97.150;2022-09-29T08:49:56;23.00;96.20
17740;DHT22;8990;33.226;-97.150;2022-09-29T08:52:28;22.90;96.40
17740;DHT22;8990;33.226;-97.150;2022-09-29T08:55:06;22.90;96.70
17740;DHT22;8990;33.226;-97.150;2022-09-29T08:57:39;22.90;96.80
17740;DHT22;8990;33.226;-97.150;2022-09-29T09:00:12;22.90;97.00
17740;DHT22;8990;33.226;-97.150;2022-09-29T09:02:57;22.80;96.90
17740;DHT22;8990;33.226;-97.150;2022-09-29T09:05:59;22.80;97.10
17740;DHT22;8990;33.226;-97.150;2022-09-29T09:08:46;22.70;97.10
17740;DHT22;8990;33.226;-97.150;2022-09-29T09:11:28;22.70;97.40
17740;DHT22;8990;33.226;-97.150;2022-09-29T09:14:11;22.70;97.50
17740;DHT22;8990;33.226;-97.150;2022-09-29T09:16:52;22.60;97.70
17740;DHT22;8990;33.226;-97.150;2022-09-29T09:22:22;22.60;98.10
17740;DHT22;8990;33.226;-97.150;2022-09-29T09:24:57;22.60;98.10
17740;DHT22;8990;33.226;-97.150;2022-09-29T09:27:30;22.60;98.40
17740;DHT22;8990;33.226;-97.150;2022-09-29T09:30:05;22.60;98.70
17740;DHT22;8990;33.226;-97.150;2022-09-29T09:32:40;22.50;98.90
17740;DHT22;8990;33.226;-97.150;2022-09-29T09:35:28;22.50;99.10
17740;DHT22;8990;33.226;-97.150;2022-09-29T09:38:00;22.50;99.30
17740;DHT22;8990;33.226;-97.150;2022-09-29T09:40:36;22.40;99.70
17740;DHT22;8990;33.226;-97.150;2022-09-29T09:43:11;22.40;99.90
17740;DHT22;8990;33.226;-97.150;2022-09-29T09:45:46;22.40;99.90
17740;DHT22;8990;33.226;-97.150;2022-09-29T09:48:23;22.40;99.90
17740;DHT22;8990;33.226;-97.150;2022-09-29T09:50:54;22.30;99.90
17740;DHT22;8990;33.226;-97.150;2022-09-29T09:53:30;22.30;99.90
17740;DHT22;8990;33.226;-97.150;2022-09-29T09:56:11;22.30;99.90
17740;DHT22;8990;33.226;-97.150;2022-09-29T09:58:59;22.20;99.90
17740;DHT22;8990;33.226;-97.150;2022-09-29T10:01:30;22.20;99.90
17740;DHT22;8990;33.226;-97.150;2022-09-29T10:04:01;22.20;99.90
17740;DHT22;8990;33.226;-97.150;2022-09-29T10:06:31;22.20;99.90
17740;DHT22;8990;33.226;-97.150;2022-09-29T10:09:01;22.20;99.90
17740;DHT22;8990;33.226;-97.150;2022-09-29T10:11:31;22.10;99.90
17740;DHT22;8990;33.226;-97.150;2022-09-29T10:14:08;22.10;99.90
17740;DHT22;8990;33.226;-97.150;2022-09-29T10:16:43;22.10;99.90
17740;DHT22;8990;33.226;-97.150;2022-09-29T10:19:20;22.10;99.90
17740;DHT22;8990;33.226;-97.150;2022-09-29T10:21:49;22.10;99.90
17740;DHT22;8990;33.226;-97.150;2022-09-29T10:24:23;22.10;99.90
17740;DHT22;8990;33.226;-97.150;2022-09-29T10:26:56;22.00;99.90
17740;DHT22;8990;33.226;-97.150;2022-09-29T10:29:31;21.90;99.90
17740;DHT22;8990;33.226;-97.150;2022-09-29T10:32:04;22.00;99.90
17740;DHT22;8990;33.226;-97.150;2022-09-29T10:34:39;21.90;99.90
17740;DHT22;8990;33.226;-97.150;2022-09-29T10:37:19;21.90;99.90
17740;DHT22;8990;33.226;-97.150;2022-09-29T10:39:50;21.90;99.90
17740;DHT22;8990;33.226;-97.150;2022-09-29T10:42:33;21.90;99.90
17740;DHT22;8990;33.226;-97.150;2022-09-29T10:45:11;21.90;99.90
17740;DHT22;8990;33.226;-97.150;2022-09-29T10:47:44;21.90;99.90
17740;DHT22;8990;33.226;-97.150;2022-09-29T10:50:19;22.00;99.90
17740;DHT22;8990;33.226;-97.150;2022-09-29T10:52:52;21.90;99.90
17740;DHT22;8990;33.226;-97.150;2022-09-29T10:55:23;21.90;99.90
17740;DHT22;8990;33.226;-97.150;2022-09-29T10:57:54;21.80;99.90
17740;DHT22;8990;33.226;-97.150;2022-09-29T11:00:29;21.60;99.90
17740;DHT22;8990;33.226;-97.150;2022-09-29T11:03:04;21.60;99.90
17740;DHT22;8990;33.226;-97.150;2022-09-29T11:05:38;21.50;99.90
17740;DHT22;8990;33.226;-97.150;2022-09-29T11:08:15;21.40;99.90
17740;DHT22;8990;33.226;-97.150;2022-09-29T11:10:46;21.30;99.90
17740;DHT22;8990;33.226;-97.150;2022-09-29T11:13:45;21.20;99.90
17740;DHT22;8990;33.226;-97.150;2022-09-29T11:16:17;21.20;99.90
17740;DHT22;8990;33.226;-97.150;2022-09-29T11:18:49;21.10;99.90
17740;DHT22;8990;33.226;-97.150;2022-09-29T11:21:46;21.10;99.90
17740;DHT22;8990;33.226;-97.150;2022-09-29T11:24:27;21.00;99.90
17740;DHT22;8990;33.226;-97.150;2022-09-29T11:27:05;20.90;99.90
17740;DHT22;8990;33.226;-97.150;2022-09-29T11:29:44;20.90;99.90
17740;DHT22;8990;33.226;-97.150;2022-09-29T11:32:30;20.90;99.90
17740;DHT22;8990;33.226;-97.150;2022-09-29T11:35:26;20.90;99.90
17740;DHT22;8990;33.226;-97.150;2022-09-29T11:41:00;20.90;99.90
17740;DHT22;8990;33.226;-97.150;2022-09-29T11:43:43;20.90;99.90
17740;DHT22;8990;33.226;-97.150;2022-09-29T11:46:28;20.80;99.90
17740;DHT22;8990;33.226;-97.150;2022-09-29T11:49:22;20.80;99.90
17740;DHT22;8990;33.226;-97.150;2022-09-29T11:52:08;20.80;99.90
17740;DHT22;8990;33.226;-97.150;2022-09-29T11:55:05;20.80;99.90
17740;DHT22;8990;33.226;-97.150;2022-09-29T11:57:47;20.80;99.90
17740;DHT22;8990;33.226;-97.150;2022-09-29T12:00:19;20.80;99.90
17740;DHT22;8990;33.226;-97.150;2022-09-29T12:03:25;20.80;99.90
17740;DHT22;8990;33.226;-97.150;2022-09-29T12:06:07;20.70;99.90
17740;DHT22;8990;33.226;-97.150;2022-09-29T12:08:50;20.60;99.90
17740;DHT22;8990;33.226;-97.150;2022-09-29T12:11:30;20.60;99.90
17740;DHT22;8990;33.226;-97.150;2022-09-29T12:14:08;20.50;99.90
17740;DHT22;8990;33.226;-97.150;2022-09-29T12:16:43;20.50;99.90
17740;DHT22;8990;33.226;-97.150;2022-09-29T12:19:17;20.40;99.90
17740;DHT22;8990;33.226;-97.150;2022-09-29T12:21:48;20.30;99.90
17740;DHT22;8990;33.226;-97.150;2022-09-29T12:24:22;20.30;99.90
17740;DHT22;8990;33.226;-97.150;2022-09-29T12:26:56;20.30;99.90
17740;DHT22;8990;33.226;-97.150;2022-09-29T12:29:31;20.30;99.90
17740;DHT22;8990;33.226;-97.150;2022-09-29T12:32:06;20.20;99.90
17740;DHT22;8990;33.226;-97.150;2022-09-29T12:34:43;20.20;99.90
17740;DHT22;8990;33.226;-97.150;2022-09-29T12:37:19;20.20;99.90
17740;DHT22;8990;33.226;-97.150;2022-09-29T12:39:58;20.10;99.90
17740;DHT22;8990;33.226;-97.150;2022-09-29T12:42:40;20.00;99.90
17740;DHT22;8990;33.226;-97.150;2022-09-29T12:45:21;20.00;99.90
17740;DHT22;8990;33.226;-97.150;2022-09-29T12:48:00;20.00;99.90
17740;DHT22;8990;33.226;-97.150;2022-09-29T12:50:39;20.10;99.90
17740;DHT22;8990;33.226;-97.150;2022-09-29T12:53:13;20.00;99.90
17740;DHT22;8990;33.226;-97.150;2022-09-29T12:55:49;20.10;99.90
17740;DHT22;8990;33.226;-97.150;2022-09-29T12:58:24;20.10;99.90
17740;DHT22;8990;33.226;-97.150;2022-09-29T13:01:02;20.20;99.90
17740;DHT22;8990;33.226;-97.150;2022-09-29T13:03:50;20.10;99.90
17740;DHT22;8990;33.226;-97.150;2022-09-29T13:09:40;20.10;99.90
17740;DHT22;8990;33.226;-97.150;2022-09-29T13:12:24;20.10;99.90
17740;DHT22;8990;33.226;-97.150;2022-09-29T13:18:14;20.20;99.60
17740;DHT22;8990;33.226;-97.150;2022-09-29T13:20:57;20.20;99.00
17740;DHT22;8990;33.226;-97.150;2022-09-29T13:23:49;20.30;99.00
17740;DHT22;8990;33.226;-97.150;2022-09-29T13:26:57;20.30;98.80
17740;DHT22;8990;33.226;-97.150;2022-09-29T13:29:42;20.30;98.40
17740;DHT22;8990;33.226;-97.150;2022-09-29T13:32:13;20.30;98.70
17740;DHT22;8990;33.226;-97.150;2022-09-29T13:34:51;20.40;98.70
17740;DHT22;8990;33.226;-97.150;2022-09-29T13:37:24;20.30;98.20
17740;DHT22;8990;33.226;-97.150;2022-09-29T13:39:58;20.40;98.10
17740;DHT22;8990;33.226;-97.150;2022-09-29T13:42:41;20.40;98.20
17740;DHT22;8990;33.226;-97.150;2022-09-29T13:45:40;20.50;98.20
17740;DHT22;8990;33.226;-97.150;2022-09-29T13:51:42;20.50;97.60
17740;DHT22;8990;33.226;-97.150;2022-09-29T13:54:24;20.60;97.50
17740;DHT22;8990;33.226;-97.150;2022-09-29T13:57:05;20.60;96.90
17740;DHT22;8990;33.226;-97.150;2022-09-29T13:59:37;20.70;96.80
17740;DHT22;8990;33.226;-97.150;2022-09-29T14:02:19;20.80;96.60
17740;DHT22;8990;33.226;-97.150;2022-09-29T14:04:55;20.80;96.60
17740;DHT22;8990;33.226;-97.150;2022-09-29T14:07:40;20.80;96.40
17740;DHT22;8990;33.226;-97.150;2022-09-29T14:10:19;20.80;96.30
17740;DHT22;8990;33.226;-97.150;2022-09-29T14:12:54;20.80;96.20
17740;DHT22;8990;33.226;-97.150;2022-09-29T14:15:26;20.90;96.20
17740;DHT22;8990;33.226;-97.150;2022-09-29T14:17:59;21.00;96.40
17740;DHT22;8990;33.226;-97.150;2022-09-29T14:20:31;21.00;96.20
17740;DHT22;8990;33.226;-97.150;2022-09-29T14:23:03;21.10;96.40
17740;DHT22;8990;33.226;-97.150;2022-09-29T14:25:48;21.30;96.20
17740;DHT22;8990;33.226;-97.150;2022-09-29T14:28:31;21.30;96.10
17740;DHT22;8990;33.226;-97.150;2022-09-29T14:31:16;21.20;96.10
17740;DHT22;8990;33.226;-97.150;2022-09-29T14:33:48;21.30;95.80
17740;DHT22;8990;33.226;-97.150;2022-09-29T14:36:20;21.40;95.70
17740;DHT22;8990;33.226;-97.150;2022-09-29T14:38:55;21.40;95.50
17740;DHT22;8990;33.226;-97.150;2022-09-29T14:41:27;21.40;95.40
17740;DHT22;8990;33.226;-97.150;2022-09-29T14:44:04;21.40;95.60
17740;DHT22;8990;33.226;-97.150;2022-09-29T14:47:03;21.50;95.40
17740;DHT22;8990;33.226;-97.150;2022-09-29T14:50:13;21.40;95.50
17740;DHT22;8990;33.226;-97.150;2022-09-29T14:53:14;21.50;95.50
17740;DHT22;8990;33.226;-97.150;2022-09-29T14:55:58;21.50;95.30
17740;DHT22;8990;33.226;-97.150;2022-09-29T14:58:39;21.40;95.10
17740;DHT22;8990;33.226;-97.150;2022-09-29T15:01:25;21.60;95.00
17740;DHT22;8990;33.226;-97.150;2022-09-29T15:04:03;21.60;94.70
17740;DHT22;8990;33.226;-97.150;2022-09-29T15:06:33;21.80;94.50
17740;DHT22;8990;33.226;-97.150;2022-09-29T15:09:15;21.80;94.50
17740;DHT22;8990;33.226;-97.150;2022-09-29T15:11:49;22.00;94.70
17740;DHT22;8990;33.226;-97.150;2022-09-29T15:14:24;22.10;94.10
17740;DHT22;8990;33.226;-97.150;2022-09-29T15:17:04;22.00;93.80
17740;DHT22;8990;33.226;-97.150;2022-09-29T15:19:49;22.00;93.80
17740;DHT22;8990;33.226;-97.150;2022-09-29T15:25:24;22.20;93.50
17740;DHT22;8990;33.226;-97.150;2022-09-29T15:27:59;22.30;93.50
17740;DHT22;8990;33.226;-97.150;2022-09-29T15:30:31;22.40;92.70
17740;DHT22;8990;33.226;-97.150;2022-09-29T15:33:14;22.30;92.60
17740;DHT22;8990;33.226;-97.150;2022-09-29T15:35:48;22.40;93.10
17740;DHT22;8990;33.226;-97.150;2022-09-29T15:38:28;22.60;92.70
17740;DHT22;8990;33.226;-97.150;2022-09-29T15:41:03;22.80;92.60
17740;DHT22;8990;33.226;-97.150;2022-09-29T15:43:42;22.90;92.10
17740;DHT22;8990;33.226;-97.150;2022-09-29T15:46:15;22.90;92.40
17740;DHT22;8990;33.226;-97.150;2022-09-29T15:49:09;23.10;92.70
17740;DHT22;8990;33.226;-97.150;2022-09-29T15:51:40;23.20;92.00
17740;DHT22;8990;33.226;-97.150;2022-09-29T15:54:12;23.30;92.00
17740;DHT22;8990;33.226;-97.150;2022-09-29T15:56:42;23.40;92.00
17740;DHT22;8990;33.226;-97.150;2022-09-29T15:59:42;23.60;91.60
17740;DHT22;8990;33.226;-97.150;2022-09-29T16:02:20;23.50;91.50
17740;DHT22;8990;33.226;-97.150;2022-09-29T16:04:53;23.60;91.20
17740;DHT22;8990;33.226;-97.150;2022-09-29T16:07:25;23.60;91.30
17740;DHT22;8990;33.226;-97.150;2022-09-29T16:10:02;23.70;91.60
17740;DHT22;8990;33.226;-97.150;2022-09-29T16:12:39;23.70;91.20
17740;DHT22;8990;33.226;-97.150;2022-09-29T16:15:16;23.60;91.10
17740;DHT22;8990;33.226;-97.150;2022-09-29T16:17:49;23.60;91.20
17740;DHT22;8990;33.226;-97.150;2022-09-29T16:20:25;23.70;90.90
17740;DHT22;8990;33.226;-97.150;2022-09-29T16:22:55;23.80;90.80